Time;durP1;ratioP1;P1;durP2;ratioP2;P2;SDS_P1;SDS_P2;PMS_P1;PMS_P2;Temp;Humidity;BMP_temperature;BMP_pressure;BME280_temperature;BME280_humidity;BME280_pressure;Samples;Min_cycle;Max_cycle;Signal;HPM_P1;HPM_P2
2022/11/11 00:00:07;;;;;;;3.15;2.45;;;;;;;;;;5096494;28;20198;-67
2022/11/11 00:02:34;;;;;;;4.78;2.65;;;;;;;;;;5096558;28;20230;-67
2022/11/11 00:05:01;;;;;;;6.10;2.15;;;;;;;;;;5100890;28;20205;-67
2022/11/11 00:07:28;;;;;;;6.80;2.20;;;;;;;;;;5103382;28;20214;-68
2022/11/11 00:09:55;;;;;;;5.50;2.30;;;;;;;;;;5099965;28;20207;-67
2022/11/11 00:12:22;;;;;;;3.45;2.50;;;;;;;;;;5095135;28;20599;-65
2022/11/11 00:14:51;;;;;;;3.65;1.95;;;;;;;;;;5094668;28;20224;-67
2022/11/11 00:25:32;;;;;;;5.25;2.50;;;;;;;;;;5094594;28;20201;-67
2022/11/11 00:27:59;;;;;;;7.72;2.78;;;;;;;;;;5097936;28;20210;-67
2022/11/11 00:30:27;;;;;;;6.60;5.47;;;;;;;;;;5097687;28;20202;-67
2022/11/11 00:32:54;;;;;;;6.85;3.22;;;;;;;;;;5097520;28;20632;-66
2022/11/11 00:38:10;;;;;;;7.07;2.05;;;;;;;;;;5097357;28;20187;-66
2022/11/11 00:40:37;;;;;;;4.20;2.60;;;;;;;;;;5097925;28;20207;-67
2022/11/11 00:43:04;;;;;;;3.40;2.00;;;;;;;;;;5097662;28;20230;-66
2022/11/11 00:45:33;;;;;;;5.72;2.60;;;;;;;;;;5098507;28;20210;-65
2022/11/11 00:51:00;;;;;;;4.00;2.13;;;;;;;;;;5097444;28;20723;-66
2022/11/11 00:53:28;;;;;;;4.85;1.90;;;;;;;;;;5098024;28;20192;-65
2022/11/11 00:55:55;;;;;;;8.30;5.20;;;;;;;;;;5097329;28;20245;-66
2022/11/11 00:58:22;;;;;;;3.97;2.20;;;;;;;;;;5096603;28;20694;-66
2022/11/11 01:00:52;;;;;;;2.40;1.60;;;;;;;;;;5096681;28;20198;-65
2022/11/11 01:03:19;;;;;;;5.63;2.30;;;;;;;;;;5097995;28;20206;-66
2022/11/11 01:05:47;;;;;;;3.00;2.05;;;;;;;;;;5096778;28;20571;-65
2022/11/11 01:08:14;;;;;;;5.35;2.75;;;;;;;;;;5096513;28;20331;-65
2022/11/11 01:10:45;;;;;;;4.18;2.45;;;;;;;;;;5096652;28;20643;-65
2022/11/11 01:13:17;;;;;;;8.70;2.35;;;;;;;;;;5096853;28;20224;-65
2022/11/11 01:15:45;;;;;;;3.22;1.83;;;;;;;;;;5096878;28;20226;-66
2022/11/11 01:18:14;;;;;;;3.22;1.70;;;;;;;;;;5097590;28;20204;-66
2022/11/11 01:20:42;;;;;;;4.88;2.60;;;;;;;;;;5096933;28;20207;-66
2022/11/11 01:23:10;;;;;;;2.50;1.92;;;;;;;;;;5096358;28;20611;-66
2022/11/11 01:25:38;;;;;;;2.65;2.05;;;;;;;;;;5096603;28;20206;-66
2022/11/11 01:28:05;;;;;;;5.80;1.90;;;;;;;;;;5096991;28;20209;-66
2022/11/11 01:30:33;;;;;;;3.10;1.63;;;;;;;;;;5096558;28;20210;-66
2022/11/11 01:33:00;;;;;;;2.85;1.70;;;;;;;;;;5096395;28;20592;-66
2022/11/11 01:35:29;;;;;;;5.15;2.08;;;;;;;;;;5096253;28;20255;-66
2022/11/11 01:37:57;;;;;;;4.22;2.38;;;;;;;;;;5095333;28;20236;-66
2022/11/11 01:40:24;;;;;;;3.42;2.20;;;;;;;;;;5096870;28;20210;-66
2022/11/11 01:42:52;;;;;;;3.83;1.90;;;;;;;;;;5095854;28;20227;-66
2022/11/11 01:45:38;;;;;;;5.53;1.90;;;;;;;;;;5096083;28;20198;-66
2022/11/11 01:50:55;;;;;;;2.55;1.85;;;;;;;;;;5096953;28;20183;-66
2022/11/11 01:53:22;;;;;;;3.45;1.90;;;;;;;;;;5096695;28;20191;-66
2022/11/11 01:55:49;;;;;;;3.50;2.28;;;;;;;;;;5095693;28;20223;-66
2022/11/11 01:58:17;;;;;;;3.63;1.92;;;;;;;;;;5095630;28;20675;-66
2022/11/11 02:00:44;;;;;;;6.00;1.77;;;;;;;;;;5095652;28;20628;-66
2022/11/11 02:03:13;;;;;;;2.45;1.45;;;;;;;;;;5095560;28;20228;-66
2022/11/11 02:05:42;;;;;;;3.17;1.83;;;;;;;;;;5095561;28;20199;-66
2022/11/11 02:08:12;;;;;;;2.17;1.50;;;;;;;;;;5095679;28;20298;-65
2022/11/11 02:10:41;;;;;;;4.15;2.05;;;;;;;;;;5095546;28;20203;-66
2022/11/11 02:15:55;;;;;;;3.88;2.10;;;;;;;;;;5095586;28;20634;-65
2022/11/11 02:18:22;;;;;;;3.25;1.52;;;;;;;;;;5097151;28;20203;-66
2022/11/11 02:20:49;;;;;;;2.10;1.65;;;;;;;;;;5096113;28;20211;-66
2022/11/11 02:23:22;;;;;;;6.30;1.70;;;;;;;;;;5095601;28;20239;-66
2022/11/11 02:25:53;;;;;;;2.25;1.90;;;;;;;;;;5096322;28;20187;-66
2022/11/11 02:28:22;;;;;;;7.10;2.10;;;;;;;;;;5097131;28;20203;-66
2022/11/11 02:30:49;;;;;;;3.58;1.85;;;;;;;;;;5096493;28;20208;-65
2022/11/11 02:33:16;;;;;;;4.35;2.63;;;;;;;;;;5096092;28;20723;-66
2022/11/11 02:35:44;;;;;;;6.70;3.10;;;;;;;;;;5097480;28;20228;-65
2022/11/11 02:38:12;;;;;;;9.23;4.68;;;;;;;;;;5096948;28;20209;-65
2022/11/11 02:41:55;;;;;;;3.25;2.30;;;;;;;;;;5096235;28;20205;-65
2022/11/11 02:43:30;;;;;;;2.60;2.10;;;;;;;;;;5096366;28;20197;-65
2022/11/11 02:45:57;;;;;;;4.13;1.98;;;;;;;;;;5095609;28;20197;-65
2022/11/11 02:48:25;;;;;;;1.80;1.50;;;;;;;;;;5094887;28;20203;-66
2022/11/11 02:50:52;;;;;;;2.92;1.42;;;;;;;;;;5095667;28;20602;-65
2022/11/11 02:53:19;;;;;;;4.78;1.73;;;;;;;;;;5096021;28;20274;-65
2022/11/11 02:55:46;;;;;;;4.10;1.55;;;;;;;;;;5095949;28;20221;-65
2022/11/11 02:58:13;;;;;;;3.15;1.25;;;;;;;;;;5096424;28;20238;-65
2022/11/11 03:00:42;;;;;;;6.30;1.90;;;;;;;;;;5096124;28;20572;-65
2022/11/11 03:03:09;;;;;;;3.45;1.70;;;;;;;;;;5095848;28;20707;-65
2022/11/11 03:05:36;;;;;;;4.60;1.90;;;;;;;;;;5096182;28;20197;-65
2022/11/11 03:08:04;;;;;;;5.32;3.15;;;;;;;;;;5095912;28;20224;-66
2022/11/11 03:10:31;;;;;;;2.60;1.80;;;;;;;;;;5095328;28;20207;-65
2022/11/11 03:12:58;;;;;;;4.07;2.65;;;;;;;;;;5094861;28;20314;-66
2022/11/11 03:15:25;;;;;;;4.15;2.80;;;;;;;;;;5095790;28;20230;-66
2022/11/11 03:17:53;;;;;;;5.63;2.55;;;;;;;;;;5095768;28;20209;-65
2022/11/11 03:23:05;;;;;;;6.05;2.85;;;;;;;;;;5094729;28;20226;-65
2022/11/11 03:25:37;;;;;;;4.05;2.20;;;;;;;;;;5094897;28;20577;-65
2022/11/11 03:28:05;;;;;;;5.88;3.25;;;;;;;;;;5094199;28;20194;-65
2022/11/11 03:30:32;;;;;;;3.55;2.70;;;;;;;;;;5094138;28;20260;-65
2022/11/11 03:33:00;;;;;;;4.10;2.20;;;;;;;;;;5094195;28;20322;-65
2022/11/11 03:35:28;;;;;;;3.30;2.55;;;;;;;;;;5094668;28;20225;-65
2022/11/11 03:40:39;;;;;;;3.83;1.85;;;;;;;;;;5094407;28;20656;-65
2022/11/11 03:43:06;;;;;;;4.45;1.80;;;;;;;;;;5094270;28;20223;-65
2022/11/11 03:45:34;;;;;;;2.80;1.90;;;;;;;;;;5094110;28;20689;-65
2022/11/11 03:48:02;;;;;;;4.70;2.10;;;;;;;;;;5093800;28;20213;-65
2022/11/11 03:50:29;;;;;;;2.65;1.80;;;;;;;;;;5093977;28;20715;-65
2022/11/11 03:52:56;;;;;;;2.60;1.60;;;;;;;;;;5094869;28;20218;-65
2022/11/11 03:55:23;;;;;;;7.88;1.95;;;;;;;;;;5094391;28;20589;-65
2022/11/11 03:57:50;;;;;;;3.78;1.90;;;;;;;;;;5093854;28;20199;-65
2022/11/11 04:00:18;;;;;;;8.77;2.15;;;;;;;;;;5092968;28;20203;-65
2022/11/11 04:10:33;;;;;;;3.55;1.90;;;;;;;;;;5114804;27;20543;-68
2022/11/11 04:16:06;;;;;;;2.40;1.77;;;;;;;;;;5071891;28;20283;-65
2022/11/11 04:24:02;;;;;;;3.47;2.03;;;;;;;;;;5088601;22;20318;-68
2022/11/11 04:26:29;;;;;;;2.40;1.60;;;;;;;;;;5050727;28;20208;-68
2022/11/11 04:32:34;;;;;;;3.58;1.73;;;;;;;;;;5057173;28;20228;-67
2022/11/11 04:34:27;;;;;;;4.53;1.98;;;;;;;;;;5059306;28;20228;-67
2022/11/11 04:36:54;;;;;;;3.67;1.70;;;;;;;;;;5061848;28;20194;-68
2022/11/11 04:42:07;;;;;;;3.45;1.85;;;;;;;;;;5063503;28;20184;-68
2022/11/11 04:47:19;;;;;;;3.85;2.05;;;;;;;;;;5064606;28;20181;-68
2022/11/11 04:49:46;;;;;;;1.98;1.60;;;;;;;;;;5057200;28;20614;-68
2022/11/11 04:52:28;;;;;;;2.67;1.92;;;;;;;;;;5055724;28;20577;-68
2022/11/11 04:57:43;;;;;;;3.88;2.17;;;;;;;;;;5055800;28;20189;-67
2022/11/11 05:00:11;;;;;;;5.38;2.35;;;;;;;;;;5055893;28;20201;-67
2022/11/11 05:05:24;;;;;;;10.65;2.45;;;;;;;;;;5057667;28;20183;-68
2022/11/11 05:10:36;;;;;;;2.53;1.63;;;;;;;;;;5049964;28;20213;-66
2022/11/11 05:21:22;;;;;;;4.18;1.90;;;;;;;;;;5039591;28;20177;-67
2022/11/11 05:26:34;;;;;;;1.92;1.77;;;;;;;;;;5036206;28;20184;-67
2022/11/11 05:29:03;;;;;;;11.13;1.92;;;;;;;;;;5036357;28;20227;-67
2022/11/11 05:31:30;;;;;;;4.28;1.92;;;;;;;;;;5036876;28;20201;-67
2022/11/11 05:33:57;;;;;;;1.95;1.70;;;;;;;;;;5037062;28;20225;-68
2022/11/11 05:36:24;;;;;;;4.15;1.83;;;;;;;;;;5038241;28;20206;-67
2022/11/11 05:38:51;;;;;;;5.88;2.20;;;;;;;;;;5039394;28;20691;-67
2022/11/11 05:41:19;;;;;;;3.72;2.13;;;;;;;;;;5038117;28;20346;-68
2022/11/11 05:43:46;;;;;;;4.50;1.50;;;;;;;;;;5037775;28;20313;-67
2022/11/11 05:46:14;;;;;;;2.65;1.67;;;;;;;;;;5039126;28;20214;-68
2022/11/11 05:49:13;;;;;;;2.65;1.80;;;;;;;;;;5037951;28;20312;-68
2022/11/11 05:51:28;;;;;;;2.90;1.58;;;;;;;;;;5036681;28;20216;-68
2022/11/11 05:53:56;;;;;;;5.25;2.50;;;;;;;;;;5036859;28;20312;-67
2022/11/11 05:56:23;;;;;;;4.78;2.38;;;;;;;;;;5036724;28;20202;-67
2022/11/11 05:58:50;;;;;;;3.97;1.95;;;;;;;;;;5036650;28;20203;-67
2022/11/11 06:01:19;;;;;;;7.28;2.85;;;;;;;;;;5037234;28;20591;-67
2022/11/11 06:03:46;;;;;;;1.98;1.65;;;;;;;;;;5036980;28;20252;-68
2022/11/11 06:06:14;;;;;;;2.42;2.20;;;;;;;;;;5036281;28;20205;-68
2022/11/11 06:08:41;;;;;;;2.78;2.03;;;;;;;;;;5036423;28;20215;-66
2022/11/11 06:11:08;;;;;;;2.70;1.83;;;;;;;;;;5035804;28;20211;-68
2022/11/11 06:13:35;;;;;;;3.55;2.05;;;;;;;;;;5038255;28;20221;-67
2022/11/11 06:16:03;;;;;;;4.22;2.15;;;;;;;;;;5037017;28;20742;-67
2022/11/11 06:18:31;;;;;;;5.03;2.35;;;;;;;;;;5036492;28;20695;-67
2022/11/11 06:20:59;;;;;;;3.38;3.08;;;;;;;;;;5036574;28;20201;-67
2022/11/11 06:23:27;;;;;;;2.58;1.70;;;;;;;;;;5035854;28;20244;-66
2022/11/11 06:26:13;;;;;;;2.70;2.05;;;;;;;;;;5035774;28;20216;-67
2022/11/11 06:28:40;;;;;;;4.05;2.35;;;;;;;;;;5035163;28;20555;-68
2022/11/11 06:31:07;;;;;;;5.22;2.15;;;;;;;;;;5035299;28;20204;-68
2022/11/11 06:33:36;;;;;;;3.97;2.15;;;;;;;;;;5034776;28;20231;-65
2022/11/11 06:36:03;;;;;;;4.93;2.40;;;;;;;;;;5035150;28;20788;-68
2022/11/11 06:38:30;;;;;;;2.30;1.90;;;;;;;;;;5035470;28;20229;-67
2022/11/11 06:40:57;;;;;;;3.80;2.03;;;;;;;;;;5035769;28;20582;-67
2022/11/11 06:43:25;;;;;;;4.18;2.10;;;;;;;;;;5035415;28;20253;-66
2022/11/11 06:45:52;;;;;;;4.78;2.10;;;;;;;;;;5035533;28;20227;-67
2022/11/11 06:48:19;;;;;;;2.45;1.83;;;;;;;;;;5034638;28;20251;-68
2022/11/11 06:50:48;;;;;;;5.70;2.25;;;;;;;;;;5034824;28;20232;-66
2022/11/11 06:53:16;;;;;;;9.65;2.42;;;;;;;;;;5036470;28;20226;-66
2022/11/11 06:55:43;;;;;;;3.35;2.58;;;;;;;;;;5036331;28;20208;-68
2022/11/11 06:58:12;;;;;;;8.45;2.35;;;;;;;;;;5037565;28;20207;-67
2022/11/11 07:00:39;;;;;;;3.50;2.60;;;;;;;;;;5035987;28;20208;-68
2022/11/11 07:03:08;;;;;;;3.13;2.30;;;;;;;;;;5037487;28;20254;-67
2022/11/11 07:05:35;;;;;;;4.97;2.35;;;;;;;;;;5035914;28;20202;-67
2022/11/11 07:08:05;;;;;;;3.70;2.00;;;;;;;;;;5039040;28;20202;-67
2022/11/11 07:10:32;;;;;;;3.40;1.90;;;;;;;;;;5034682;28;20229;-68
2022/11/11 07:12:59;;;;;;;6.80;2.35;;;;;;;;;;5034372;28;20278;-68
2022/11/11 07:15:26;;;;;;;2.80;1.73;;;;;;;;;;5034357;28;20207;-68
2022/11/11 07:17:54;;;;;;;3.25;1.50;;;;;;;;;;5034696;28;20202;-68
2022/11/11 07:20:21;;;;;;;3.05;1.83;;;;;;;;;;5034719;28;20201;-67
2022/11/11 07:22:48;;;;;;;3.75;2.20;;;;;;;;;;5035286;28;20233;-68
2022/11/11 07:25:17;;;;;;;3.50;2.30;;;;;;;;;;5034540;28;20190;-67
2022/11/11 07:27:44;;;;;;;2.65;1.98;;;;;;;;;;5034187;28;20673;-67
2022/11/11 07:30:12;;;;;;;2.17;1.70;;;;;;;;;;5033589;28;20221;-67
2022/11/11 07:32:45;;;;;;;5.78;3.47;;;;;;;;;;5033812;28;20229;-67
2022/11/11 07:35:13;;;;;;;4.47;2.00;;;;;;;;;;5034114;28;20651;-67
2022/11/11 07:37:40;;;;;;;5.25;1.92;;;;;;;;;;5034401;28;20276;-68
2022/11/11 07:40:08;;;;;;;4.85;2.38;;;;;;;;;;5033275;28;20289;-67
2022/11/11 07:42:37;;;;;;;6.03;2.45;;;;;;;;;;5033666;28;20218;-68
2022/11/11 07:45:05;;;;;;;5.18;2.30;;;;;;;;;;5033592;28;20209;-68
2022/11/11 07:47:33;;;;;;;5.53;2.70;;;;;;;;;;5033377;28;20228;-66
2022/11/11 07:50:00;;;;;;;3.60;2.58;;;;;;;;;;5033099;28;20215;-68
2022/11/11 07:52:27;;;;;;;3.80;2.00;;;;;;;;;;5033316;28;20215;-67
2022/11/11 07:54:55;;;;;;;4.50;1.63;;;;;;;;;;5033641;28;20214;-67
2022/11/11 07:57:22;;;;;;;7.22;2.17;;;;;;;;;;5033910;28;20201;-68
2022/11/11 07:59:51;;;;;;;7.50;2.55;;;;;;;;;;5033232;28;20671;-66
2022/11/11 08:02:18;;;;;;;3.72;2.45;;;;;;;;;;5033495;28;20211;-68
2022/11/11 08:04:47;;;;;;;3.03;2.30;;;;;;;;;;5033622;28;20213;-67
2022/11/11 08:07:14;;;;;;;2.35;2.00;;;;;;;;;;5033275;28;20711;-67
2022/11/11 08:09:41;;;;;;;2.80;2.10;;;;;;;;;;5033765;28;20228;-68
2022/11/11 08:14:55;;;;;;;3.83;2.20;;;;;;;;;;5033818;28;20405;-68
2022/11/11 08:17:22;;;;;;;2.90;2.10;;;;;;;;;;5033673;28;20443;-67
2022/11/11 08:19:49;;;;;;;6.67;2.10;;;;;;;;;;5033411;28;20439;-67
2022/11/11 08:22:16;;;;;;;3.63;1.63;;;;;;;;;;5032926;28;20820;-67
2022/11/11 08:24:44;;;;;;;6.73;3.00;;;;;;;;;;5033059;28;20438;-68
2022/11/11 08:27:11;;;;;;;4.90;2.60;;;;;;;;;;5032925;28;20928;-68
2022/11/11 08:29:38;;;;;;;8.17;2.43;;;;;;;;;;5033707;28;20529;-67
2022/11/11 08:32:06;;;;;;;7.23;2.37;;;;;;;;;;5033426;28;20456;-67
2022/11/11 08:34:34;;;;;;;3.93;2.30;;;;;;;;;;5033626;28;20457;-67
2022/11/11 08:37:01;;;;;;;5.57;1.90;;;;;;;;;;5033294;28;20442;-67
2022/11/11 08:39:28;;;;;;;4.33;2.27;;;;;;;;;;5033416;28;20447;-68
2022/11/11 08:41:55;;;;;;;3.90;2.43;;;;;;;;;;5033158;28;20524;-67
2022/11/11 08:44:22;;;;;;;5.10;2.43;;;;;;;;;;5033249;28;20466;-68
2022/11/11 08:46:49;;;;;;;6.87;2.50;;;;;;;;;;5034291;28;20451;-67
2022/11/11 08:49:17;;;;;;;2.37;1.87;;;;;;;;;;5033035;28;20452;-67
2022/11/11 08:51:45;;;;;;;3.27;2.40;;;;;;;;;;5033320;28;20451;-68
2022/11/11 08:54:12;;;;;;;6.40;1.83;;;;;;;;;;5033112;28;20476;-68
2022/11/11 08:56:39;;;;;;;8.20;2.40;;;;;;;;;;5035371;28;20446;-68
2022/11/11 08:59:07;;;;;;;5.40;2.00;;;;;;;;;;5036689;28;20451;-69
2022/11/11 09:01:34;;;;;;;2.60;1.60;;;;;;;;;;5037754;28;20549;-68
2022/11/11 09:04:01;;;;;;;3.80;1.87;;;;;;;;;;5036712;28;20978;-68
2022/11/11 09:06:29;;;;;;;3.50;1.63;;;;;;;;;;5036973;28;20462;-68
2022/11/11 09:08:57;;;;;;;4.53;2.43;;;;;;;;;;5037281;28;20447;-68
2022/11/11 09:11:24;;;;;;;2.03;1.57;;;;;;;;;;5037288;28;21000;-67
2022/11/11 09:13:51;;;;;;;4.00;1.77;;;;;;;;;;5037426;28;20520;-68
2022/11/11 09:16:18;;;;;;;3.80;2.30;;;;;;;;;;5038397;28;20741;-67
2022/11/11 09:18:46;;;;;;;4.23;2.17;;;;;;;;;;5040231;28;20455;-67
2022/11/11 09:21:13;;;;;;;2.80;2.03;;;;;;;;;;5038419;28;20452;-67
2022/11/11 09:23:42;;;;;;;3.43;2.10;;;;;;;;;;5039054;28;20477;-68
2022/11/11 09:26:09;;;;;;;5.90;2.13;;;;;;;;;;5038860;28;20445;-67
2022/11/11 09:28:36;;;;;;;6.83;2.57;;;;;;;;;;5039162;28;20497;-67
2022/11/11 09:31:03;;;;;;;2.40;1.67;;;;;;;;;;5038359;28;20484;-67
2022/11/11 09:33:31;;;;;;;4.10;2.20;;;;;;;;;;5036783;28;20491;-68
2022/11/11 09:35:58;;;;;;;5.93;2.20;;;;;;;;;;5038556;28;20463;-68
2022/11/11 09:38:26;;;;;;;3.03;1.90;;;;;;;;;;5037633;28;20453;-68
2022/11/11 09:41:00;;;;;;;4.33;1.90;;;;;;;;;;5036993;28;20449;-68
2022/11/11 09:43:33;;;;;;;3.77;1.83;;;;;;;;;;5036722;28;20482;-68
2022/11/11 09:46:06;;;;;;;2.83;1.53;;;;;;;;;;5036834;28;20434;-69
2022/11/11 09:48:41;;;;;;;3.63;2.27;;;;;;;;;;5036960;28;20439;-68
2022/11/11 09:51:16;;;;;;;2.10;1.87;;;;;;;;;;5036219;28;21049;-67
2022/11/11 09:53:46;;;;;;;3.10;1.60;;;;;;;;;;5036648;28;20465;-68
2022/11/11 09:56:15;;;;;;;3.60;1.80;;;;;;;;;;5036413;28;20460;-68
2022/11/11 09:58:45;;;;;;;2.57;1.87;;;;;;;;;;5037040;28;20454;-67
2022/11/11 10:01:14;;;;;;;3.57;1.50;;;;;;;;;;5037507;28;20445;-68
2022/11/11 10:03:44;;;;;;;4.90;1.77;;;;;;;;;;5036752;28;20480;-68
2022/11/11 10:06:16;;;;;;;3.53;2.07;;;;;;;;;;5036732;28;20437;-68
2022/11/11 10:08:47;;;;;;;4.30;2.00;;;;;;;;;;5036563;28;20443;-68
2022/11/11 10:11:19;;;;;;;3.77;1.13;;;;;;;;;;5035555;28;20563;-68
2022/11/11 10:13:46;;;;;;;2.23;1.33;;;;;;;;;;5035922;28;20480;-68
2022/11/11 10:16:18;;;;;;;3.47;1.50;;;;;;;;;;5036500;28;20780;-69
2022/11/11 10:18:56;;;;;;;3.70;1.70;;;;;;;;;;5036675;28;20507;-69
2022/11/11 10:21:24;;;;;;;3.17;1.67;;;;;;;;;;5037592;28;20448;-68
2022/11/11 10:23:53;;;;;;;1.53;1.10;;;;;;;;;;5061113;22;20497;-65
2022/11/11 10:26:25;;;;;;;10.40;2.33;;;;;;;;;;5037005;28;20463;-68
2022/11/11 10:28:54;;;;;;;1.73;1.30;;;;;;;;;;5036633;28;20496;-64
2022/11/11 10:31:22;;;;;;;3.47;1.40;;;;;;;;;;5043347;28;20542;-65
2022/11/11 10:33:51;;;;;;;2.80;1.00;;;;;;;;;;5036750;28;20866;-63
2022/11/11 10:36:19;;;;;;;1.63;1.33;;;;;;;;;;5036584;28;20457;-65
2022/11/11 10:38:49;;;;;;;2.73;1.30;;;;;;;;;;5035437;28;20540;-64
2022/11/11 10:41:18;;;;;;;2.30;1.20;;;;;;;;;;5036887;28;20449;-64
2022/11/11 10:43:47;;;;;;;5.13;1.67;;;;;;;;;;5036089;28;20483;-64
2022/11/11 10:46:16;;;;;;;3.47;1.43;;;;;;;;;;5035213;28;20448;-63
2022/11/11 10:48:47;;;;;;;3.30;1.57;;;;;;;;;;5035141;28;20445;-64
2022/11/11 10:51:15;;;;;;;3.43;1.30;;;;;;;;;;5034654;28;20552;-62
2022/11/11 10:53:45;;;;;;;1.90;1.53;;;;;;;;;;5034430;28;20465;-63
2022/11/11 10:56:15;;;;;;;2.27;1.27;;;;;;;;;;5034737;28;20539;-64
2022/11/11 10:58:46;;;;;;;3.60;1.30;;;;;;;;;;5034782;28;20453;-64
2022/11/11 11:01:21;;;;;;;3.73;2.33;;;;;;;;;;5034369;28;20456;-66
2022/11/11 11:03:58;;;;;;;2.93;1.80;;;;;;;;;;5035780;28;20840;-64
2022/11/11 11:06:27;;;;;;;2.77;1.40;;;;;;;;;;5035332;28;20982;-64
2022/11/11 11:08:57;;;;;;;3.97;2.30;;;;;;;;;;5036120;28;20522;-65
2022/11/11 11:11:27;;;;;;;2.60;1.63;;;;;;;;;;5035216;28;20473;-64
2022/11/11 11:13:56;;;;;;;2.00;1.50;;;;;;;;;;5035028;28;20468;-64
2022/11/11 11:16:27;;;;;;;2.27;1.43;;;;;;;;;;5036075;28;20445;-65
2022/11/11 11:19:13;;;;;;;1.30;1.10;;;;;;;;;;5034693;28;20449;-66
2022/11/11 11:21:48;;;;;;;3.43;1.30;;;;;;;;;;5034426;28;20533;-65
2022/11/11 11:24:20;;;;;;;5.47;2.10;;;;;;;;;;5034229;28;20481;-65
2022/11/11 11:26:48;;;;;;;2.40;1.50;;;;;;;;;;5036146;28;20525;-64
2022/11/11 11:29:25;;;;;;;3.23;1.60;;;;;;;;;;5034717;28;20497;-64
2022/11/11 11:31:54;;;;;;;2.40;2.10;;;;;;;;;;5033610;28;20465;-65
2022/11/11 11:34:21;;;;;;;5.27;1.90;;;;;;;;;;5033978;28;20474;-69
2022/11/11 11:37:01;;;;;;;1.80;1.33;;;;;;;;;;5033218;28;20449;-67
2022/11/11 11:39:35;;;;;;;2.63;1.90;;;;;;;;;;5033499;28;20446;-68
2022/11/11 11:42:02;;;;;;;3.00;1.53;;;;;;;;;;5033217;28;20523;-68
2022/11/11 11:44:30;;;;;;;2.77;1.60;;;;;;;;;;5033647;28;20890;-68
2022/11/11 11:47:04;;;;;;;3.93;1.70;;;;;;;;;;5033596;28;20461;-69
2022/11/11 11:49:40;;;;;;;4.07;1.97;;;;;;;;;;5033064;28;20496;-68
2022/11/11 11:52:11;;;;;;;2.40;1.20;;;;;;;;;;5033127;28;20488;-69
2022/11/11 11:54:47;;;;;;;2.07;1.20;;;;;;;;;;5033679;28;20565;-68
2022/11/11 11:57:21;;;;;;;2.60;1.60;;;;;;;;;;5032755;28;20813;-68
2022/11/11 11:59:52;;;;;;;2.27;1.57;;;;;;;;;;5034420;28;20449;-68
2022/11/11 12:02:30;;;;;;;2.23;1.27;;;;;;;;;;5033557;28;20431;-68
2022/11/11 12:05:08;;;;;;;3.23;1.33;;;;;;;;;;5032876;28;20474;-68
2022/11/11 12:07:46;;;;;;;1.93;1.30;;;;;;;;;;5032654;28;20981;-69
2022/11/11 12:10:21;;;;;;;2.90;1.60;;;;;;;;;;5033349;28;20441;-67
2022/11/11 12:12:51;;;;;;;3.43;1.77;;;;;;;;;;5032634;28;20503;-68
2022/11/11 12:15:23;;;;;;;2.30;1.43;;;;;;;;;;5033182;28;20432;-68
2022/11/11 12:17:56;;;;;;;2.77;2.00;;;;;;;;;;5032717;28;20440;-65
2022/11/11 12:20:25;;;;;;;4.10;2.10;;;;;;;;;;5033137;28;20429;-68
2022/11/11 12:23:01;;;;;;;3.10;2.10;;;;;;;;;;5032547;28;20963;-68
2022/11/11 12:25:36;;;;;;;3.47;1.50;;;;;;;;;;5032866;28;20903;-67
2022/11/11 12:28:09;;;;;;;3.80;1.30;;;;;;;;;;5033012;28;20936;-68
2022/11/11 12:30:41;;;;;;;2.50;1.27;;;;;;;;;;5033640;28;20872;-67
2022/11/11 12:33:30;;;;;;;2.90;1.77;;;;;;;;;;5036852;28;20896;-68
2022/11/11 12:36:00;;;;;;;2.83;1.33;;;;;;;;;;5036823;28;20516;-67
2022/11/11 12:38:35;;;;;;;8.60;2.23;;;;;;;;;;5037148;28;20447;-67
2022/11/11 12:41:07;;;;;;;1.43;1.23;;;;;;;;;;5037234;28;20427;-68
2022/11/11 12:43:49;;;;;;;2.53;1.40;;;;;;;;;;5037926;28;20915;-66
2022/11/11 12:46:21;;;;;;;2.63;1.17;;;;;;;;;;5036635;28;20440;-64
2022/11/11 12:48:55;;;;;;;1.50;0.87;;;;;;;;;;5036711;28;20452;-64
2022/11/11 12:51:29;;;;;;;1.83;0.70;;;;;;;;;;5036949;28;20472;-66
2022/11/11 12:54:10;;;;;;;3.47;1.27;;;;;;;;;;5037163;28;20467;-67
2022/11/11 12:56:43;;;;;;;1.30;0.80;;;;;;;;;;5037006;28;20947;-66
2022/11/11 12:59:18;;;;;;;3.03;1.00;;;;;;;;;;5037061;28;20489;-64
2022/11/11 13:01:51;;;;;;;2.17;1.00;;;;;;;;;;5037108;28;20447;-65
2022/11/11 13:04:33;;;;;;;1.47;1.07;;;;;;;;;;5037236;28;20470;-65
2022/11/11 13:07:16;;;;;;;4.60;1.50;;;;;;;;;;5036935;28;20489;-65
2022/11/11 13:09:54;;;;;;;2.20;1.10;;;;;;;;;;5034240;28;20457;-65
2022/11/11 13:12:26;;;;;;;2.50;0.83;;;;;;;;;;5037746;28;20838;-69
2022/11/11 13:14:59;;;;;;;2.37;0.97;;;;;;;;;;5036404;28;20466;-69
2022/11/11 13:17:26;;;;;;;5.37;1.50;;;;;;;;;;5036552;28;20453;-67
2022/11/11 13:19:58;;;;;;;2.90;0.73;;;;;;;;;;5036223;28;20457;-69
2022/11/11 13:22:26;;;;;;;1.87;1.30;;;;;;;;;;5036088;28;20445;-68
2022/11/11 13:24:54;;;;;;;4.03;1.47;;;;;;;;;;5035555;28;20486;-68
2022/11/11 13:27:27;;;;;;;1.93;1.30;;;;;;;;;;5036174;28;20449;-69
2022/11/11 13:30:11;;;;;;;7.90;1.10;;;;;;;;;;5035401;28;20438;-68
2022/11/11 13:32:41;;;;;;;2.30;1.50;;;;;;;;;;5035809;28;20471;-68
2022/11/11 13:35:18;;;;;;;2.30;1.00;;;;;;;;;;5035759;28;20458;-70
2022/11/11 13:37:45;;;;;;;2.47;1.60;;;;;;;;;;5035827;28;20431;-69
2022/11/11 13:40:24;;;;;;;2.80;1.00;;;;;;;;;;5035799;28;20445;-69
2022/11/11 13:42:53;;;;;;;1.93;1.00;;;;;;;;;;5034849;28;20432;-68
2022/11/11 13:45:24;;;;;;;1.30;0.93;;;;;;;;;;5036045;28;20462;-68
2022/11/11 13:47:51;;;;;;;1.33;0.97;;;;;;;;;;5035987;28;20519;-69
2022/11/11 13:50:26;;;;;;;2.13;1.33;;;;;;;;;;5035519;28;20973;-68
2022/11/11 13:52:57;;;;;;;5.60;1.30;;;;;;;;;;5035364;28;20554;-68
2022/11/11 13:55:28;;;;;;;3.83;1.03;;;;;;;;;;5035534;28;20851;-67
2022/11/11 13:57:55;;;;;;;2.70;1.00;;;;;;;;;;5035373;28;20432;-67
2022/11/11 14:00:27;;;;;;;3.37;1.40;;;;;;;;;;5035420;28;20453;-68
2022/11/11 14:03:09;;;;;;;1.50;1.13;;;;;;;;;;5035088;28;20940;-68
2022/11/11 14:05:37;;;;;;;2.03;1.00;;;;;;;;;;5039335;28;20446;-63
2022/11/11 14:08:05;;;;;;;3.53;1.27;;;;;;;;;;5036133;28;20450;-62
2022/11/11 14:10:50;;;;;;;3.93;1.30;;;;;;;;;;5036814;28;20478;-64
2022/11/11 14:13:37;;;;;;;2.20;1.00;;;;;;;;;;5035858;28;20836;-64
2022/11/11 14:16:05;;;;;;;2.50;0.93;;;;;;;;;;5035565;28;20446;-64
2022/11/11 14:18:39;;;;;;;4.10;1.27;;;;;;;;;;5034825;28;20593;-64
2022/11/11 14:21:12;;;;;;;3.03;1.10;;;;;;;;;;5035193;28;20493;-65
2022/11/11 14:23:42;;;;;;;2.87;1.23;;;;;;;;;;5035245;28;20469;-64
2022/11/11 14:26:27;;;;;;;4.30;1.17;;;;;;;;;;5035290;28;20462;-63
2022/11/11 14:29:02;;;;;;;2.37;1.27;;;;;;;;;;5035533;28;20446;-64
2022/11/11 14:31:44;;;;;;;2.00;1.27;;;;;;;;;;5035455;28;20483;-63
2022/11/11 14:34:16;;;;;;;1.73;1.03;;;;;;;;;;5035025;28;20553;-62
2022/11/11 14:36:47;;;;;;;1.80;0.90;;;;;;;;;;5034699;28;20436;-64
2022/11/11 14:39:21;;;;;;;1.37;0.80;;;;;;;;;;5034547;28;20465;-64
2022/11/11 14:41:49;;;;;;;2.40;1.27;;;;;;;;;;5034907;28;20482;-64
2022/11/11 14:44:31;;;;;;;3.20;1.17;;;;;;;;;;5037127;28;20470;-65
2022/11/11 14:47:17;;;;;;;1.97;1.10;;;;;;;;;;5034390;28;20452;-63
2022/11/11 14:49:49;;;;;;;5.60;1.57;;;;;;;;;;5034266;28;20535;-63
2022/11/11 14:52:23;;;;;;;5.73;1.53;;;;;;;;;;5033876;28;20568;-65
2022/11/11 14:54:56;;;;;;;1.70;1.30;;;;;;;;;;5033683;28;20465;-65
2022/11/11 14:57:25;;;;;;;2.77;1.67;;;;;;;;;;5033717;28;20451;-65
2022/11/11 14:59:52;;;;;;;4.93;1.50;;;;;;;;;;5034698;28;20452;-63
2022/11/11 15:02:23;;;;;;;2.50;1.67;;;;;;;;;;5034588;28;20437;-65
2022/11/11 15:04:50;;;;;;;1.73;1.50;;;;;;;;;;5034375;28;20473;-64
2022/11/11 15:07:30;;;;;;;4.00;1.40;;;;;;;;;;5033771;28;20448;-64
2022/11/11 15:10:04;;;;;;;4.67;1.70;;;;;;;;;;5034873;28;20800;-65
2022/11/11 15:12:39;;;;;;;3.33;1.90;;;;;;;;;;5035129;28;20839;-64
2022/11/11 15:15:11;;;;;;;2.23;1.63;;;;;;;;;;5036392;28;20547;-64
2022/11/11 15:17:42;;;;;;;2.47;1.70;;;;;;;;;;5035989;28;20441;-65
2022/11/11 15:20:19;;;;;;;3.77;2.00;;;;;;;;;;5036477;28;20916;-65
2022/11/11 15:22:53;;;;;;;3.57;1.70;;;;;;;;;;5035726;28;20430;-65
2022/11/11 15:25:29;;;;;;;1.57;1.40;;;;;;;;;;5035104;28;20437;-62
2022/11/11 15:28:00;;;;;;;2.00;1.70;;;;;;;;;;5034937;28;20433;-65
2022/11/11 15:30:36;;;;;;;2.07;1.60;;;;;;;;;;5034259;28;20452;-64
2022/11/11 15:33:06;;;;;;;4.67;1.70;;;;;;;;;;5034742;28;20485;-64
2022/11/11 15:35:37;;;;;;;3.87;2.57;;;;;;;;;;5033972;28;20952;-65
2022/11/11 15:38:06;;;;;;;3.97;1.60;;;;;;;;;;5034324;28;20432;-62
2022/11/11 15:40:43;;;;;;;3.17;2.87;;;;;;;;;;5034622;28;20455;-63
2022/11/11 15:43:14;;;;;;;2.80;2.50;;;;;;;;;;5035434;28;20967;-63
2022/11/11 15:45:41;;;;;;;4.90;2.47;;;;;;;;;;5034781;28;20437;-63
2022/11/11 15:48:14;;;;;;;4.30;2.70;;;;;;;;;;5034282;28;20475;-65
2022/11/11 15:50:41;;;;;;;2.80;2.10;;;;;;;;;;5033432;28;20430;-62
2022/11/11 15:53:12;;;;;;;3.27;2.00;;;;;;;;;;5034133;28;20513;-63
2022/11/11 15:55:39;;;;;;;3.63;2.50;;;;;;;;;;5033923;28;20449;-63
2022/11/11 15:58:10;;;;;;;3.43;2.57;;;;;;;;;;5033400;28;20977;-63
2022/11/11 16:00:37;;;;;;;3.13;2.73;;;;;;;;;;5033402;28;20451;-61
2022/11/11 16:03:06;;;;;;;5.83;2.87;;;;;;;;;;5033154;28;20466;-63
2022/11/11 16:05:35;;;;;;;4.87;3.90;;;;;;;;;;5033571;28;20514;-63
2022/11/11 16:08:04;;;;;;;3.50;3.00;;;;;;;;;;5033402;28;20446;-63
2022/11/11 16:10:34;;;;;;;4.63;3.57;;;;;;;;;;5033308;28;20490;-63